createdAt,value
2018-03-07T05:00:44.630Z,986.63
2018-03-07T05:01:10.116Z,986.65
2018-03-07T05:01:35.672Z,986.65
2018-03-07T05:02:01.293Z,986.64
2018-03-07T05:02:26.766Z,986.66
2018-03-07T05:02:52.366Z,986.65
2018-03-07T05:03:17.863Z,986.68
2018-03-07T05:03:43.336Z,986.65
2018-03-07T05:04:08.789Z,986.68
2018-03-07T05:04:34.279Z,986.67
2018-03-07T05:04:59.745Z,986.69
2018-03-07T05:05:25.224Z,986.74
2018-03-07T05:05:50.729Z,986.67
2018-03-07T05:06:16.146Z,986.62
2018-03-07T05:06:41.658Z,986.65
2018-03-07T05:07:07.080Z,986.67
2018-03-07T05:07:32.611Z,986.67
2018-03-07T05:07:58.166Z,986.67
2018-03-07T05:08:23.655Z,986.67
2018-03-07T05:08:49.091Z,986.65
2018-03-07T05:09:14.539Z,986.62
2018-03-07T05:09:40.031Z,986.64
2018-03-07T05:10:05.549Z,986.71
2018-03-07T05:10:31.029Z,986.64
2018-03-07T05:10:56.501Z,986.67
2018-03-07T05:11:21.911Z,986.69
2018-03-07T05:11:47.449Z,986.66
2018-03-07T05:12:12.902Z,986.66
2018-03-07T05:12:38.373Z,986.65
2018-03-07T05:13:03.854Z,986.65
2018-03-07T05:13:29.321Z,986.7
2018-03-07T05:13:54.791Z,986.71
2018-03-07T05:14:20.302Z,986.69
2018-03-07T05:14:45.779Z,986.68
2018-03-07T05:15:11.213Z,986.71
2018-03-07T05:15:36.670Z,986.71
2018-03-07T05:16:02.141Z,986.72
2018-03-07T05:16:27.630Z,986.7
2018-03-07T05:16:53.120Z,986.66
2018-03-07T05:17:18.567Z,986.7
2018-03-07T05:17:44.046Z,986.65
2018-03-07T05:18:09.525Z,986.69
2018-03-07T05:18:35.009Z,986.68
2018-03-07T05:19:00.456Z,986.7
2018-03-07T05:19:25.940Z,986.69
2018-03-07T05:19:51.414Z,986.7
2018-03-07T05:20:16.853Z,986.69
2018-03-07T05:20:42.331Z,986.69
2018-03-07T05:21:07.770Z,986.71
2018-03-07T05:21:33.284Z,986.74
2018-03-07T05:21:58.783Z,986.69
2018-03-07T05:22:24.234Z,986.69
2018-03-07T05:22:49.702Z,986.7
2018-03-07T05:23:15.148Z,986.69
2018-03-07T05:23:40.602Z,986.71
2018-03-07T05:24:06.112Z,986.71
2018-03-07T05:24:31.613Z,986.72
2018-03-07T05:24:57.071Z,986.72
2018-03-07T05:25:22.544Z,986.7
2018-03-07T05:25:48.035Z,986.73
2018-03-07T05:26:13.533Z,986.74
2018-03-07T05:26:39.013Z,986.74
2018-03-07T05:27:04.564Z,986.72
2018-03-07T05:27:30.056Z,986.74
2018-03-07T05:27:55.540Z,986.73
2018-03-07T05:28:21.171Z,986.74
2018-03-07T05:28:46.581Z,986.72
2018-03-07T05:29:12.192Z,986.71
2018-03-07T05:29:37.692Z,986.72
2018-03-07T05:30:03.130Z,986.7
2018-03-07T05:30:28.680Z,986.71
2018-03-07T05:30:54.172Z,986.71
2018-03-07T05:31:19.679Z,986.74
2018-03-07T05:31:45.092Z,986.73
2018-03-07T05:32:10.572Z,986.71
2018-03-07T05:32:36.088Z,986.7
2018-03-07T05:33:01.571Z,986.73
2018-03-07T05:33:27.138Z,986.71
2018-03-07T05:33:52.632Z,986.71
2018-03-07T05:34:18.063Z,986.72
2018-03-07T05:34:43.589Z,986.72
2018-03-07T05:35:09.111Z,986.76
2018-03-07T05:35:34.748Z,986.72
2018-03-07T05:36:00.280Z,986.74
2018-03-07T05:36:25.847Z,986.76
2018-03-07T05:36:51.582Z,986.75
2018-03-07T05:37:17.250Z,986.76
2018-03-07T05:37:42.896Z,986.72
2018-03-07T05:38:08.224Z,986.76
2018-03-07T05:38:33.832Z,986.75
2018-03-07T05:38:59.301Z,986.75
2018-03-07T05:39:24.835Z,986.75
2018-03-07T05:39:50.281Z,986.74
2018-03-07T05:40:15.788Z,986.77
2018-03-07T05:40:41.304Z,986.74
2018-03-07T05:41:06.822Z,986.72
2018-03-07T05:41:32.365Z,986.72
2018-03-07T05:41:57.872Z,986.73
2018-03-07T05:42:23.365Z,986.73
2018-03-07T05:42:48.856Z,986.72
2018-03-07T05:43:14.377Z,986.75
2018-03-07T05:43:39.869Z,986.78
2018-03-07T05:44:05.365Z,986.8
2018-03-07T05:44:30.912Z,986.75
2018-03-07T05:44:56.439Z,986.77
2018-03-07T05:45:21.920Z,986.8
2018-03-07T05:45:47.473Z,986.76
2018-03-07T05:47:06.415Z,986.78
2018-03-07T05:47:31.919Z,986.8
2018-03-07T05:47:57.458Z,986.78
2018-03-07T05:48:22.967Z,986.78
2018-03-07T05:48:48.512Z,986.78
2018-03-07T05:49:13.977Z,986.75
2018-03-07T05:49:39.474Z,986.79
2018-03-07T05:50:05.010Z,986.83
2018-03-07T05:50:30.586Z,986.83
2018-03-07T05:50:56.105Z,986.83
2018-03-07T05:51:21.591Z,986.82
2018-03-07T05:51:47.085Z,986.83
2018-03-07T05:52:12.563Z,986.87
2018-03-07T05:52:38.021Z,986.88
2018-03-07T05:53:03.540Z,986.85
2018-03-07T05:53:29.042Z,986.85
2018-03-07T05:54:47.969Z,986.85
2018-03-07T05:55:13.438Z,986.87
2018-03-07T05:55:38.913Z,986.88
2018-03-07T05:56:04.388Z,986.86
2018-03-07T05:56:29.882Z,986.91
2018-03-07T05:56:55.369Z,986.88
2018-03-07T05:57:20.823Z,986.95
2018-03-07T05:57:46.334Z,986.92
2018-03-07T05:58:11.857Z,986.93
2018-03-07T05:58:37.321Z,986.92
2018-03-07T05:59:02.799Z,986.93
2018-03-07T05:59:28.307Z,986.94
2018-03-07T05:59:53.793Z,986.95
2018-03-07T06:00:19.276Z,986.98
2018-03-07T06:00:44.791Z,986.93
2018-03-07T06:01:10.297Z,986.98
2018-03-07T06:01:35.828Z,986.93
2018-03-07T06:02:01.336Z,986.96
2018-03-07T06:02:26.836Z,986.99
2018-03-07T06:02:52.324Z,986.96
2018-03-07T06:03:17.802Z,987.01
2018-03-07T06:04:16.336Z,987.03
2018-03-07T06:04:41.829Z,986.99
2018-03-07T06:05:07.307Z,986.99
2018-03-07T06:05:32.865Z,987
2018-03-07T06:05:58.346Z,986.99
2018-03-07T06:06:23.882Z,987.06
2018-03-07T06:06:49.389Z,987.02
2018-03-07T06:07:14.884Z,987
2018-03-07T06:07:40.425Z,987.06
2018-03-07T06:08:05.936Z,987.03
2018-03-07T06:08:31.399Z,987.04
2018-03-07T06:09:50.360Z,987.04
2018-03-07T06:10:15.830Z,987.03
2018-03-07T06:10:41.315Z,987.04
2018-03-07T06:11:06.796Z,987.04
2018-03-07T06:11:32.285Z,987.07
2018-03-07T06:11:57.772Z,987.03
2018-03-07T06:12:23.255Z,987.06
2018-03-07T06:12:48.716Z,987.04
2018-03-07T06:13:14.227Z,987.08
2018-03-07T06:13:39.756Z,987.06
2018-03-07T06:14:05.236Z,987.08
2018-03-07T06:14:30.737Z,987.08
2018-03-07T06:14:56.293Z,987.06
2018-03-07T06:15:21.806Z,987.08
2018-03-07T06:15:47.324Z,987.1
2018-03-07T06:16:12.811Z,987.1
2018-03-07T06:16:38.278Z,987.09
2018-03-07T06:17:03.745Z,987.1
2018-03-07T06:17:29.207Z,987.11
2018-03-07T06:17:54.679Z,987.1
2018-03-07T06:18:20.186Z,987.1
2018-03-07T06:18:45.646Z,987.11
2018-03-07T06:19:11.181Z,987.11
2018-03-07T06:19:36.693Z,987.08
2018-03-07T06:20:02.172Z,987.1
2018-03-07T06:20:27.721Z,987.12
2018-03-07T06:20:53.201Z,987.12
2018-03-07T06:21:18.714Z,987.12
2018-03-07T06:21:44.211Z,987.14
2018-03-07T06:22:09.680Z,987.12
2018-03-07T06:22:35.183Z,987.15
2018-03-07T06:23:00.646Z,987.2
2018-03-07T06:23:26.146Z,987.2
2018-03-07T06:23:51.567Z,987.16
2018-03-07T06:24:55.191Z,987.2
2018-03-07T06:25:20.666Z,987.16
2018-03-07T06:25:46.164Z,987.18
2018-03-07T06:26:11.697Z,987.16
2018-03-07T06:26:37.203Z,987.19
2018-03-07T06:27:02.706Z,987.2
2018-03-07T06:27:28.188Z,987.22
2018-03-07T06:27:53.672Z,987.22
2018-03-07T06:28:19.131Z,987.23
2018-03-07T06:28:44.630Z,987.24
2018-03-07T06:29:10.121Z,987.19
2018-03-07T06:29:35.618Z,987.25
2018-03-07T06:30:01.098Z,987.26
2018-03-07T06:30:26.617Z,987.26
2018-03-07T06:30:52.132Z,987.26
2018-03-07T06:31:17.609Z,987.27
2018-03-07T06:31:43.111Z,987.26
2018-03-07T06:32:08.602Z,987.29
2018-03-07T06:32:34.107Z,987.25
2018-03-07T06:32:59.589Z,987.27
2018-03-07T06:33:25.077Z,987.28
2018-03-07T06:33:50.559Z,987.28
2018-03-07T06:34:16.104Z,987.25
2018-03-07T06:34:41.575Z,987.25
2018-03-07T06:35:07.084Z,987.28
2018-03-07T06:35:32.568Z,987.32
2018-03-07T06:35:58.106Z,987.28
2018-03-07T06:36:23.558Z,987.28
2018-03-07T06:37:27.181Z,987.32
2018-03-07T06:37:52.677Z,987.33
2018-03-07T06:38:18.170Z,987.32
2018-03-07T06:38:43.648Z,987.36
2018-03-07T06:39:09.139Z,987.34
2018-03-07T06:40:12.747Z,987.32
2018-03-07T06:40:38.234Z,987.33
2018-03-07T06:41:03.713Z,987.35
2018-03-07T06:41:29.278Z,987.35
2018-03-07T06:41:54.747Z,987.38
2018-03-07T06:42:20.221Z,987.34
2018-03-07T06:42:45.721Z,987.37
2018-03-07T06:43:11.216Z,987.38
2018-03-07T06:43:36.696Z,987.33
2018-03-07T06:44:02.178Z,987.37
2018-03-07T06:44:27.681Z,987.38
2018-03-07T06:44:53.175Z,987.39
2018-03-07T06:45:18.682Z,987.41
2018-03-07T06:45:44.198Z,987.35
2018-03-07T06:46:09.691Z,987.4
2018-03-07T06:46:35.238Z,987.41
2018-03-07T06:47:00.664Z,987.42
2018-03-07T06:47:26.150Z,987.38
2018-03-07T06:47:51.700Z,987.45
2018-03-07T06:48:17.173Z,987.43
2018-03-07T06:48:42.649Z,987.46
2018-03-07T06:49:08.120Z,987.46
2018-03-07T06:49:33.611Z,987.45
2018-03-07T06:49:59.124Z,987.49
2018-03-07T06:50:24.582Z,987.43
2018-03-07T06:51:28.198Z,987.44
2018-03-07T06:51:53.740Z,987.44
2018-03-07T06:52:19.217Z,987.48
2018-03-07T06:52:44.734Z,987.44
2018-03-07T06:53:10.249Z,987.48
2018-03-07T06:53:35.754Z,987.48
2018-03-07T06:54:01.261Z,987.5
2018-03-07T06:54:26.787Z,987.51
2018-03-07T06:54:52.277Z,987.53
2018-03-07T06:55:17.746Z,987.48
2018-03-07T06:55:43.257Z,987.49
2018-03-07T06:56:08.785Z,987.51
2018-03-07T06:56:34.271Z,987.52
2018-03-07T06:56:59.769Z,987.52
2018-03-07T06:57:25.249Z,987.51
2018-03-07T06:57:50.752Z,987.51
2018-03-07T06:59:04.543Z,987.51
2018-03-07T06:59:30.035Z,987.52
2018-03-07T06:59:55.551Z,987.53
2018-03-07T07:01:14.469Z,987.57
2018-03-07T07:01:39.957Z,987.56
2018-03-07T07:02:58.854Z,987.56
2018-03-07T07:03:24.347Z,987.59
2018-03-07T07:03:49.865Z,987.58
2018-03-07T07:04:15.392Z,987.59
2018-03-07T07:04:40.882Z,987.56
2018-03-07T07:05:06.388Z,987.6
2018-03-07T07:05:31.995Z,987.62
2018-03-07T07:05:57.399Z,987.65
2018-03-07T07:06:22.886Z,987.59
2018-03-07T07:06:48.396Z,987.64
2018-03-07T07:08:07.387Z,987.61
2018-03-07T07:08:32.895Z,987.58
2018-03-07T07:08:58.392Z,987.6
2018-03-07T07:09:23.939Z,987.62
2018-03-07T07:09:49.530Z,987.63
2018-03-07T07:10:15.053Z,987.65
2018-03-07T07:10:40.547Z,987.64
2018-03-07T07:11:06.044Z,987.62
2018-03-07T07:11:31.549Z,987.67
2018-03-07T07:11:57.066Z,987.65
2018-03-07T07:12:22.598Z,987.69
2018-03-07T07:12:48.081Z,987.68
2018-03-07T07:13:13.596Z,987.72
2018-03-07T07:13:39.069Z,987.69
2018-03-07T07:14:04.636Z,987.72
2018-03-07T07:14:30.037Z,987.7
2018-03-07T07:14:55.602Z,987.7
2018-03-07T07:15:21.047Z,987.73
2018-03-07T07:15:46.561Z,987.74
2018-03-07T07:16:12.052Z,987.72
2018-03-07T07:16:37.530Z,987.71
2018-03-07T07:17:03.119Z,987.81
2018-03-07T07:17:28.575Z,987.78
2018-03-07T07:17:54.093Z,987.77
2018-03-07T07:18:19.575Z,987.75
2018-03-07T07:18:45.080Z,987.82
2018-03-07T07:19:10.568Z,987.77
2018-03-07T07:19:36.077Z,987.78
2018-03-07T07:20:01.589Z,987.75
2018-03-07T07:20:27.246Z,987.8
2018-03-07T07:20:52.721Z,987.78
2018-03-07T07:21:18.241Z,987.85
2018-03-07T07:22:21.859Z,987.8
2018-03-07T07:22:47.379Z,987.77
2018-03-07T07:23:12.961Z,987.79
2018-03-07T07:23:38.351Z,987.81
2018-03-07T07:24:03.911Z,987.82
2018-03-07T07:24:29.399Z,987.77
2018-03-07T07:24:54.877Z,987.8
2018-03-07T07:25:20.405Z,987.82
2018-03-07T07:25:46.002Z,987.79
2018-03-07T07:26:11.555Z,987.8
2018-03-07T07:26:37.068Z,987.85
2018-03-07T07:27:02.551Z,987.86
2018-03-07T07:27:28.057Z,987.81
2018-03-07T07:27:53.592Z,987.86
2018-03-07T07:28:19.105Z,987.83
2018-03-07T07:28:44.650Z,987.82
2018-03-07T07:29:10.138Z,987.85
2018-03-07T07:29:35.650Z,987.84
2018-03-07T07:30:01.160Z,987.85
2018-03-07T07:30:26.905Z,987.83
2018-03-07T07:30:52.427Z,987.87
2018-03-07T07:31:17.886Z,987.84
2018-03-07T07:31:43.325Z,987.86
2018-03-07T07:32:08.771Z,987.89
2018-03-07T07:32:34.234Z,987.84
2018-03-07T07:32:59.691Z,987.87
2018-03-07T07:33:25.197Z,987.85
2018-03-07T07:33:50.655Z,987.89
2018-03-07T07:34:16.100Z,987.88
2018-03-07T07:34:41.523Z,987.87
2018-03-07T07:35:07.045Z,987.88
2018-03-07T07:35:32.493Z,987.85
2018-03-07T07:35:57.961Z,987.89
2018-03-07T07:36:23.407Z,987.89
2018-03-07T07:36:48.832Z,987.84
2018-03-07T07:37:14.413Z,987.86
2018-03-07T07:37:39.850Z,987.88
2018-03-07T07:38:05.339Z,987.87
2018-03-07T07:38:30.805Z,987.86
2018-03-07T07:38:56.239Z,987.87
2018-03-07T07:39:21.722Z,987.9
2018-03-07T07:39:47.211Z,987.9
2018-03-07T07:40:12.917Z,987.9
2018-03-07T07:40:38.509Z,987.87
2018-03-07T07:41:04.065Z,987.91
2018-03-07T07:41:29.568Z,987.91
2018-03-07T07:41:55.109Z,987.94
2018-03-07T07:42:20.637Z,987.91
2018-03-07T07:42:46.110Z,987.91
2018-03-07T07:43:11.572Z,987.93
2018-03-07T07:43:37.085Z,987.93
2018-03-07T07:44:02.540Z,987.92
2018-03-07T07:44:28.033Z,987.93
2018-03-07T07:44:53.560Z,987.96
2018-03-07T07:45:57.160Z,987.95
2018-03-07T07:46:22.645Z,987.93
2018-03-07T07:46:48.155Z,987.92
2018-03-07T07:47:13.674Z,987.91
2018-03-07T07:47:39.193Z,987.91
2018-03-07T07:48:04.649Z,987.92
2018-03-07T07:48:30.153Z,987.94
2018-03-07T07:48:55.631Z,987.96
2018-03-07T07:49:21.133Z,987.91
2018-03-07T07:49:46.587Z,987.95
2018-03-07T07:50:12.086Z,987.9
2018-03-07T07:50:37.627Z,987.93
2018-03-07T07:51:03.129Z,987.91
2018-03-07T07:51:28.624Z,987.95
2018-03-07T07:51:54.119Z,987.9
2018-03-07T07:52:19.645Z,987.94
2018-03-07T07:52:45.143Z,987.93
2018-03-07T07:53:10.630Z,987.92
2018-03-07T07:53:36.153Z,987.96
2018-03-07T07:54:01.649Z,987.93
2018-03-07T07:54:27.260Z,987.97
2018-03-07T07:54:52.672Z,987.96
2018-03-07T07:55:18.193Z,987.94
2018-03-07T07:55:43.664Z,987.96
2018-03-07T07:56:09.171Z,988
2018-03-07T07:56:34.668Z,987.99
2018-03-07T07:57:00.194Z,987.99
2018-03-07T07:57:25.676Z,987.98
2018-03-07T07:57:51.189Z,987.97
2018-03-07T07:58:16.662Z,987.99
2018-03-07T07:58:42.105Z,987.98
2018-03-07T07:59:07.583Z,987.97
2018-03-07T07:59:33.055Z,987.99
2018-03-07T07:59:58.526Z,988.01
2018-03-07T08:00:24.014Z,987.98
2018-03-07T08:00:49.446Z,988
2018-03-07T08:01:14.907Z,987.98
2018-03-07T08:01:40.357Z,988
2018-03-07T08:02:05.920Z,987.99
2018-03-07T08:02:31.460Z,988
2018-03-07T08:02:57.014Z,988
2018-03-07T08:03:22.463Z,988.02
2018-03-07T08:03:47.926Z,988
2018-03-07T08:04:13.401Z,987.99
2018-03-07T08:04:38.863Z,988.01
2018-03-07T08:05:04.485Z,988.01
2018-03-07T08:05:29.914Z,988
2018-03-07T08:05:55.487Z,988.02
2018-03-07T08:06:20.942Z,988.04
2018-03-07T08:07:39.965Z,988.03
2018-03-07T08:08:05.474Z,988.05
2018-03-07T08:08:30.987Z,988.06
2018-03-07T08:08:56.441Z,988.06
2018-03-07T08:09:21.911Z,988.06
2018-03-07T08:09:47.342Z,988.04
2018-03-07T08:10:12.832Z,988.06
2018-03-07T08:10:38.248Z,988.04
2018-03-07T08:11:03.718Z,988.01
2018-03-07T08:11:29.240Z,988.04
2018-03-07T08:11:54.672Z,988.04
2018-03-07T08:12:20.151Z,988.03
2018-03-07T08:13:23.746Z,988.03
2018-03-07T08:13:49.239Z,988.04
2018-03-07T08:14:14.745Z,988.03
2018-03-07T08:14:40.302Z,988.02
2018-03-07T08:15:05.798Z,988.05
2018-03-07T08:15:31.287Z,988.06
2018-03-07T08:15:56.794Z,988.03
2018-03-07T08:17:10.577Z,988.04
2018-03-07T08:17:36.073Z,988.1
2018-03-07T08:18:01.627Z,988.02
2018-03-07T08:18:27.094Z,988.06
2018-03-07T08:18:52.572Z,988.07
2018-03-07T08:19:18.098Z,988.06
2018-03-07T08:19:43.607Z,988.06
2018-03-07T08:20:09.316Z,988.04
2018-03-07T08:20:34.818Z,988.07
2018-03-07T08:21:00.360Z,988.07
2018-03-07T08:21:25.854Z,988.08
2018-03-07T08:21:51.357Z,988.08
2018-03-07T08:22:16.855Z,988.07
2018-03-07T08:22:42.355Z,988.06
2018-03-07T08:23:07.950Z,988.06
2018-03-07T08:23:33.447Z,988.09
2018-03-07T08:23:58.911Z,988.06
2018-03-07T08:24:24.400Z,988.06
2018-03-07T08:24:49.906Z,988.09
2018-03-07T08:25:15.429Z,988.05
2018-03-07T08:25:40.888Z,988.08
2018-03-07T08:26:06.379Z,988.04
2018-03-07T08:26:31.883Z,988.05
2018-03-07T08:26:57.374Z,988.04
2018-03-07T08:27:22.889Z,988
2018-03-07T08:27:48.392Z,988.01
2018-03-07T08:28:13.876Z,988.05
2018-03-07T08:28:39.421Z,988.06
2018-03-07T08:29:04.941Z,988.1
2018-03-07T08:29:30.419Z,988.04
2018-03-07T08:29:55.964Z,988
2018-03-07T08:30:21.448Z,988.04
2018-03-07T08:30:46.962Z,988.01
2018-03-07T08:31:12.484Z,988.01
2018-03-07T08:31:38.007Z,987.98
2018-03-07T08:32:03.533Z,987.98
2018-03-07T08:32:29.092Z,988.01
2018-03-07T08:32:54.607Z,987.99
2018-03-07T08:33:20.079Z,987.97
2018-03-07T08:33:45.569Z,988.01
2018-03-07T08:34:11.039Z,987.99
2018-03-07T08:34:36.531Z,988.03
2018-03-07T08:35:02.066Z,987.98
2018-03-07T08:35:27.560Z,987.97
2018-03-07T08:35:53.068Z,988.01
2018-03-07T08:36:18.566Z,987.99
2018-03-07T08:37:33.487Z,987.98
2018-03-07T08:37:58.980Z,988
2018-03-07T08:38:24.425Z,988
2018-03-07T08:38:49.933Z,988.02
2018-03-07T08:39:15.446Z,988.02
2018-03-07T08:39:40.962Z,988.02
2018-03-07T08:40:06.433Z,988.02
2018-03-07T08:41:15.135Z,988.01
2018-03-07T08:41:40.635Z,988.03
2018-03-07T08:42:06.157Z,988.02
2018-03-07T08:42:31.660Z,988.01
2018-03-07T08:42:57.183Z,988.04
2018-03-07T08:43:22.683Z,988.03
2018-03-07T08:43:48.213Z,988.05
2018-03-07T08:44:13.695Z,988.01
2018-03-07T08:44:39.212Z,988.04
2018-03-07T08:45:04.708Z,988.01
2018-03-07T08:45:30.212Z,988.02
2018-03-07T08:45:55.683Z,988.02
2018-03-07T08:46:21.167Z,988.01
2018-03-07T08:46:46.689Z,988
2018-03-07T08:47:12.168Z,988
2018-03-07T08:47:37.691Z,987.98
2018-03-07T08:48:03.149Z,988.02
2018-03-07T08:48:28.788Z,988.01
2018-03-07T08:48:54.350Z,988.01
2018-03-07T08:49:19.850Z,988.01
2018-03-07T08:49:45.356Z,987.98
2018-03-07T08:50:10.893Z,987.97
2018-03-07T08:50:36.414Z,987.98
2018-03-07T08:51:01.906Z,987.99
2018-03-07T08:51:27.404Z,987.99
2018-03-07T08:51:52.891Z,988.01
2018-03-07T08:52:18.361Z,987.99
2018-03-07T08:52:43.877Z,988
2018-03-07T08:53:09.438Z,988
2018-03-07T08:53:34.928Z,988
2018-03-07T08:54:00.399Z,988.01
2018-03-07T08:54:25.954Z,988.05
2018-03-07T08:54:51.521Z,988.02
2018-03-07T08:55:17.070Z,988.02
2018-03-07T08:55:42.550Z,988.02
2018-03-07T08:57:01.531Z,988.05
2018-03-07T08:57:27.034Z,988.05
2018-03-07T08:57:52.510Z,988.03
2018-03-07T08:58:18.012Z,988.06
2018-03-07T08:58:43.534Z,988.03
2018-03-07T08:59:09.017Z,988
2018-03-07T08:59:34.532Z,988.04
2018-03-07T09:00:00.033Z,988.04
2018-03-07T09:00:25.526Z,988
2018-03-07T09:00:50.992Z,988.07
2018-03-07T09:01:16.499Z,988.02
2018-03-07T09:01:41.989Z,988.05
2018-03-07T09:02:07.481Z,987.96
2018-03-07T09:02:32.982Z,988.05
2018-03-07T09:02:58.493Z,988.04
2018-03-07T09:03:23.992Z,988
2018-03-07T09:03:49.470Z,988.02
2018-03-07T09:04:14.963Z,987.99
2018-03-07T09:04:40.450Z,987.97
2018-03-07T09:05:05.958Z,987.99
2018-03-07T09:05:31.450Z,987.98
2018-03-07T09:05:56.924Z,988.02
2018-03-07T09:06:22.391Z,988.01
2018-03-07T09:06:47.872Z,988.02
2018-03-07T09:07:13.379Z,988
2018-03-07T09:07:38.907Z,987.95
2018-03-07T09:08:04.400Z,988.03
2018-03-07T09:08:29.890Z,987.99
2018-03-07T09:08:55.352Z,987.96
2018-03-07T09:09:20.831Z,987.98
2018-03-07T09:09:46.312Z,987.99
2018-03-07T09:10:11.867Z,987.97
2018-03-07T09:10:37.340Z,987.96
2018-03-07T09:11:02.855Z,987.99
2018-03-07T09:11:28.390Z,988.01
2018-03-07T09:11:53.917Z,987.96
2018-03-07T09:12:19.364Z,987.99
2018-03-07T09:12:44.883Z,987.99
2018-03-07T09:13:10.384Z,988
2018-03-07T09:13:35.885Z,988
2018-03-07T09:14:01.378Z,988.04
2018-03-07T09:14:26.881Z,988.03
2018-03-07T09:14:52.364Z,987.99
2018-03-07T09:15:17.879Z,987.98
2018-03-07T09:15:43.345Z,988.02
2018-03-07T09:16:08.807Z,988.02
2018-03-07T09:16:34.322Z,988.04
2018-03-07T09:17:53.248Z,988
2018-03-07T09:18:18.758Z,988.02
2018-03-07T09:18:44.249Z,987.98
2018-03-07T09:19:09.725Z,988
2018-03-07T09:19:35.215Z,988.01
2018-03-07T09:20:00.716Z,987.98
2018-03-07T09:20:26.233Z,987.99
2018-03-07T09:20:51.748Z,987.99
2018-03-07T09:21:17.241Z,987.98
2018-03-07T09:21:42.740Z,988.02
2018-03-07T09:22:08.237Z,987.99
2018-03-07T09:22:33.715Z,987.98
2018-03-07T09:22:59.232Z,988.03
2018-03-07T09:23:24.758Z,988.01
2018-03-07T09:23:50.256Z,987.98
2018-03-07T09:24:15.741Z,987.97
2018-03-07T09:24:41.232Z,988
2018-03-07T09:25:06.760Z,987.99
2018-03-07T09:25:32.221Z,988.03
2018-03-07T09:25:57.679Z,987.99
2018-03-07T09:26:23.221Z,988.01
2018-03-07T09:26:48.712Z,988.01
2018-03-07T09:27:14.208Z,988.02
2018-03-07T09:27:39.690Z,988.01
2018-03-07T09:28:05.173Z,987.99
2018-03-07T09:28:30.703Z,987.99
2018-03-07T09:28:56.261Z,987.99
2018-03-07T09:29:21.708Z,988
2018-03-07T09:29:47.204Z,987.98
2018-03-07T09:30:12.695Z,987.99
2018-03-07T09:30:38.253Z,987.99
2018-03-07T09:31:03.724Z,987.99
2018-03-07T09:31:29.204Z,987.95
2018-03-07T09:31:54.649Z,987.97
2018-03-07T09:32:20.148Z,987.97
2018-03-07T09:33:23.803Z,987.96
2018-03-07T09:33:49.290Z,987.96
2018-03-07T09:34:14.794Z,987.98
2018-03-07T09:34:40.300Z,987.97
2018-03-07T09:35:05.792Z,987.96
2018-03-07T09:35:31.294Z,988.01
2018-03-07T09:35:56.774Z,987.98
2018-03-07T09:36:22.248Z,987.97
2018-03-07T09:36:47.752Z,988
2018-03-07T09:37:13.267Z,988.01
2018-03-07T09:37:38.788Z,987.98
2018-03-07T09:38:04.276Z,987.99
2018-03-07T09:38:29.779Z,987.95
2018-03-07T09:38:55.265Z,987.91
2018-03-07T09:39:20.742Z,987.92
2018-03-07T09:39:46.264Z,987.95
2018-03-07T09:40:11.774Z,987.94
2018-03-07T09:40:37.263Z,987.95
2018-03-07T09:41:02.732Z,987.95
2018-03-07T09:41:28.222Z,987.96
2018-03-07T09:41:53.727Z,987.95
2018-03-07T09:42:19.218Z,987.91
2018-03-07T09:42:44.714Z,987.89
2018-03-07T09:43:10.239Z,987.91
2018-03-07T09:43:35.735Z,987.9
2018-03-07T09:44:01.230Z,987.91
2018-03-07T09:45:10.022Z,987.91
2018-03-07T09:45:35.464Z,987.88
2018-03-07T09:46:00.949Z,987.89
2018-03-07T09:46:26.431Z,987.91
2018-03-07T09:46:51.915Z,987.89
2018-03-07T09:47:17.459Z,987.88
2018-03-07T09:47:42.932Z,987.92
2018-03-07T09:48:08.442Z,987.93
2018-03-07T09:48:33.949Z,987.9
2018-03-07T09:48:59.450Z,987.9
2018-03-07T09:49:24.944Z,987.87
2018-03-07T09:50:28.530Z,987.83
2018-03-07T09:50:54.022Z,987.86
2018-03-07T09:51:19.510Z,987.87
2018-03-07T09:51:44.994Z,987.84
2018-03-07T09:52:10.502Z,987.83
2018-03-07T09:52:35.981Z,987.79
2018-03-07T09:53:01.427Z,987.73
2018-03-07T09:53:26.909Z,987.84
2018-03-07T09:53:52.407Z,987.79
2018-03-07T09:54:17.871Z,987.75
2018-03-07T09:54:43.390Z,987.79
2018-03-07T09:55:08.857Z,987.76
2018-03-07T09:55:34.364Z,987.77
2018-03-07T09:55:59.882Z,987.76
2018-03-07T09:56:25.405Z,987.76
2018-03-07T09:56:50.852Z,987.78
2018-03-07T09:57:16.326Z,987.78
2018-03-07T09:57:41.788Z,987.72
2018-03-07T09:58:07.248Z,987.73
2018-03-07T09:58:32.725Z,987.75
2018-03-07T09:58:58.225Z,987.76
2018-03-07T09:59:23.694Z,987.75
2018-03-07T10:00:23.222Z,987.79
2018-03-07T10:00:48.737Z,987.73
2018-03-07T10:01:57.493Z,987.74
2018-03-07T10:02:22.947Z,987.77
2018-03-07T10:02:48.448Z,987.81
2018-03-07T10:03:13.929Z,987.74
2018-03-07T10:03:39.437Z,987.75
2018-03-07T10:04:04.914Z,987.79
2018-03-07T10:04:30.439Z,987.79
2018-03-07T10:04:55.922Z,987.78
2018-03-07T10:05:21.414Z,987.81
2018-03-07T10:05:46.909Z,987.83
2018-03-07T10:06:12.353Z,987.82
2018-03-07T10:06:37.846Z,987.79
2018-03-07T10:07:03.342Z,987.82
2018-03-07T10:07:28.840Z,987.8
2018-03-07T10:07:54.316Z,987.87
2018-03-07T10:08:19.806Z,987.85
2018-03-07T10:08:45.304Z,987.85
2018-03-07T10:09:10.789Z,987.86
2018-03-07T10:09:36.275Z,987.85
2018-03-07T10:10:01.764Z,987.92
2018-03-07T10:10:27.220Z,987.86
2018-03-07T10:10:52.684Z,987.93
2018-03-07T10:11:18.190Z,987.93
2018-03-07T10:11:43.663Z,987.95
2018-03-07T10:12:09.238Z,987.94
2018-03-07T10:12:34.710Z,987.94
2018-03-07T10:13:00.224Z,987.99
2018-03-07T10:13:25.696Z,988
2018-03-07T10:13:51.182Z,987.96
2018-03-07T10:14:16.640Z,988
2018-03-07T10:14:42.148Z,988.01
2018-03-07T10:15:07.615Z,988
2018-03-07T10:15:33.140Z,988.02
2018-03-07T10:15:58.611Z,988.01
2018-03-07T10:16:57.164Z,988.01
2018-03-07T10:17:22.659Z,988.01
2018-03-07T10:17:48.143Z,988
2018-03-07T10:18:13.658Z,988.03
2018-03-07T10:18:39.159Z,988.04
2018-03-07T10:19:04.628Z,988.02
2018-03-07T10:19:30.124Z,988.02
2018-03-07T10:19:55.589Z,988.01
2018-03-07T10:20:21.095Z,988.06
2018-03-07T10:20:46.566Z,988.04
2018-03-07T10:21:12.056Z,988.04
2018-03-07T10:21:37.540Z,988.03
2018-03-07T10:22:03.011Z,988.02
2018-03-07T10:22:28.537Z,988.03
2018-03-07T10:22:54.048Z,988.06
2018-03-07T10:23:19.566Z,988.07
2018-03-07T10:23:45.038Z,988.04
2018-03-07T10:24:10.542Z,988.05
2018-03-07T10:24:35.997Z,988.06
2018-03-07T10:25:01.481Z,988.06
2018-03-07T10:25:27.009Z,988.09
2018-03-07T10:25:52.537Z,988.02
2018-03-07T10:26:18.041Z,988.05
2018-03-07T10:26:43.540Z,988.05
2018-03-07T10:27:09.057Z,988.06
2018-03-07T10:27:34.586Z,988.06
2018-03-07T10:28:00.062Z,988.07
2018-03-07T10:28:25.553Z,988.1
2018-03-07T10:28:51.086Z,988.09
2018-03-07T10:29:16.560Z,988.1
2018-03-07T10:29:42.051Z,988.09
2018-03-07T10:30:07.507Z,988.11
2018-03-07T10:30:33.024Z,988.11
2018-03-07T10:30:58.545Z,988.12
2018-03-07T10:31:24.015Z,988.08
2018-03-07T10:31:49.508Z,988.1
2018-03-07T10:32:14.976Z,988.09
2018-03-07T10:32:40.454Z,988.1
2018-03-07T10:33:05.979Z,988.1
2018-03-07T10:33:31.426Z,988.12
2018-03-07T10:33:56.931Z,988.11
2018-03-07T10:34:22.432Z,988.14
2018-03-07T10:34:47.936Z,988.13
2018-03-07T10:35:13.487Z,988.15
2018-03-07T10:35:38.969Z,988.17
2018-03-07T10:36:04.469Z,988.16
2018-03-07T10:36:29.951Z,988.18
2018-03-07T10:36:55.419Z,988.18
2018-03-07T10:37:20.918Z,988.19
2018-03-07T10:37:46.417Z,988.23
2018-03-07T10:38:11.927Z,988.22
2018-03-07T10:38:37.395Z,988.26
2018-03-07T10:39:02.867Z,988.24
2018-03-07T10:39:28.409Z,988.22
2018-03-07T10:39:53.863Z,988.23
2018-03-07T10:40:19.317Z,988.3
2018-03-07T10:40:44.811Z,988.25